Time;durP1;ratioP1;P1;durP2;ratioP2;P2;SDS_P1;SDS_P2;PMS_P1;PMS_P2;Temp;Humidity;BMP_temperature;BMP_pressure;BME280_temperature;BME280_humidity;BME280_pressure;Samples;Min_cycle;Max_cycle;Signal;HPM_P1;HPM_P2
2024/03/29 01:45:10;;;;;;;3.35;1.00;;;22.40;50.50;;;;;;10342785;28;20440;-54
2024/03/29 01:50:12;;;;;;;1.20;0.82;;;22.40;50.20;;;;;;10365884;28;20133;-55
2024/03/29 01:55:14;;;;;;;2.45;0.93;;;22.40;49.80;;;;;;10372653;28;20057;-58
2024/03/29 02:00:17;;;;;;;1.75;0.88;;;22.30;50.20;;;;;;10370037;28;20063;-57
2024/03/29 02:05:19;;;;;;;1.17;0.70;;;22.20;50.10;;;;;;10364407;28;20068;-55
2024/03/29 02:10:20;;;;;;;2.25;0.82;;;22.10;49.70;;;;;;10362841;28;20054;-53
2024/03/29 02:15:23;;;;;;;1.35;0.90;;;22.20;49.00;;;;;;10363642;28;20054;-56
2024/03/29 02:20:25;;;;;;;1.27;0.88;;;22.10;49.40;;;;;;10370837;28;20050;-54
2024/03/29 02:25:28;;;;;;;1.10;0.70;;;22.00;49.10;;;;;;10369631;28;20052;-56
2024/03/29 02:30:32;;;;;;;3.70;0.85;;;21.90;49.60;;;;;;10363393;28;20046;-56
2024/03/29 02:35:34;;;;;;;0.80;0.80;;;21.90;49.40;;;;;;10324351;28;20137;-57
2024/03/29 02:40:37;;;;;;;1.73;0.80;;;21.80;49.00;;;;;;10323309;28;20594;-54
2024/03/29 02:45:38;;;;;;;1.63;0.60;;;21.70;49.00;;;;;;10319201;28;20511;-57
2024/03/29 02:50:40;;;;;;;1.45;0.80;;;21.70;49.20;;;;;;10321462;28;20145;-57
2024/03/29 02:55:43;;;;;;;1.45;0.60;;;21.70;49.20;;;;;;10331187;28;20082;-55
2024/03/29 03:00:45;;;;;;;1.90;0.80;;;21.60;49.20;;;;;;10316762;28;20050;-58
2024/03/29 03:05:46;;;;;;;2.03;0.90;;;21.50;49.00;;;;;;10317488;28;20577;-54
2024/03/29 03:11:00;;;;;;;1.67;0.80;;;21.50;49.30;;;;;;10326067;28;20053;-56
2024/03/29 03:16:01;;;;;;;1.20;0.63;;;21.50;48.80;;;;;;10336575;28;20042;-58
2024/03/29 03:21:03;;;;;;;1.38;0.80;;;21.60;48.70;;;;;;10324709;28;20150;-51
2024/03/29 03:26:06;;;;;;;1.60;0.70;;;21.40;49.00;;;;;;10321154;28;20053;-52
2024/03/29 03:31:09;;;;;;;3.53;0.82;;;21.30;49.10;;;;;;10316672;28;20126;-51
2024/03/29 03:36:10;;;;;;;1.35;0.80;;;21.20;49.10;;;;;;10314041;28;20043;-55
2024/03/29 03:41:13;;;;;;;1.60;0.90;;;21.20;48.90;;;;;;10320680;28;20042;-56
2024/03/29 03:46:15;;;;;;;1.30;0.75;;;21.30;48.50;;;;;;10326667;28;20042;-56
2024/03/29 03:51:17;;;;;;;1.80;0.82;;;21.30;48.20;;;;;;10322074;28;20046;-55
2024/03/29 03:56:20;;;;;;;1.38;0.80;;;21.10;48.50;;;;;;10324342;28;20078;-53
2024/03/29 04:01:22;;;;;;;0.75;0.70;;;21.10;48.30;;;;;;10329778;28;20043;-55
2024/03/29 04:06:23;;;;;;;1.50;0.80;;;21.30;46.80;;;;;;10329266;28;20046;-55
2024/03/29 04:11:26;;;;;;;1.08;0.73;;;20.80;47.50;;;;;;10324038;28;20045;-55
2024/03/29 04:16:28;;;;;;;2.15;0.70;;;20.40;48.40;;;;;;10327745;28;20060;-57
2024/03/29 04:21:30;;;;;;;1.60;0.75;;;20.40;49.00;;;;;;10328636;28;20066;-54
2024/03/29 04:26:33;;;;;;;0.90;0.60;;;21.10;48.00;;;;;;10323906;28;20046;-58
2024/03/29 04:31:34;;;;;;;2.47;0.63;;;21.70;47.00;;;;;;10316196;28;20038;-56
2024/03/29 04:36:36;;;;;;;1.92;0.85;;;22.00;46.40;;;;;;10315545;28;20043;-53
2024/03/29 04:41:39;;;;;;;4.30;0.93;;;22.10;45.90;;;;;;10312210;28;20051;-56
2024/03/29 04:46:40;;;;;;;1.05;0.77;;;22.20;45.40;;;;;;10308607;28;20047;-55
2024/03/29 04:51:42;;;;;;;1.60;0.82;;;22.00;45.70;;;;;;10316343;28;20060;-56
2024/03/29 04:56:45;;;;;;;1.23;0.90;;;22.10;45.50;;;;;;10314998;28;20074;-54
2024/03/29 05:01:50;;;;;;;1.20;0.82;;;22.10;45.30;;;;;;10315586;28;20061;-56
2024/03/29 05:06:51;;;;;;;1.55;0.80;;;22.30;44.80;;;;;;10317209;28;20134;-58
2024/03/29 05:11:54;;;;;;;1.33;0.63;;;22.30;44.60;;;;;;10317373;28;20050;-53
2024/03/29 05:16:56;;;;;;;1.60;0.70;;;22.30;44.40;;;;;;10321667;28;20137;-54
2024/03/29 05:21:58;;;;;;;0.95;0.65;;;22.30;44.50;;;;;;10312586;28;20051;-56
2024/03/29 05:27:00;;;;;;;1.50;0.65;;;22.40;44.20;;;;;;10314185;28;20085;-55
2024/03/29 05:32:02;;;;;;;1.50;0.80;;;22.40;44.00;;;;;;10318643;28;20416;-54
2024/03/29 05:37:04;;;;;;;0.93;0.73;;;22.50;43.90;;;;;;10312457;28;20053;-56
2024/03/29 05:42:08;;;;;;;2.08;0.82;;;22.60;43.50;;;;;;10312014;28;20520;-54
2024/03/29 05:47:09;;;;;;;1.58;0.80;;;22.70;43.50;;;;;;10308208;28;20046;-54
2024/03/29 05:52:13;;;;;;;1.38;0.77;;;22.70;43.40;;;;;;10305997;28;20054;-52
2024/03/29 05:57:16;;;;;;;2.05;0.90;;;22.70;43.10;;;;;;10311782;28;20046;-53
2024/03/29 06:02:18;;;;;;;1.20;0.73;;;22.70;42.90;;;;;;10314153;28;20057;-54
2024/03/29 06:07:20;;;;;;;2.13;0.88;;;22.70;42.80;;;;;;10314130;28;20141;-52
2024/03/29 06:12:22;;;;;;;1.55;0.75;;;22.70;42.80;;;;;;10312125;28;20053;-52
2024/03/29 06:17:24;;;;;;;2.53;0.80;;;22.80;42.60;;;;;;10309732;28;20042;-55
2024/03/29 06:22:29;;;;;;;1.10;0.80;;;22.70;42.40;;;;;;10315419;28;20050;-54
2024/03/29 06:27:33;;;;;;;3.47;0.70;;;22.70;41.80;;;;;;10314515;28;20420;-53
2024/03/29 06:32:34;;;;;;;0.70;0.60;;;22.40;42.40;;;;;;10315885;28;20141;-55
2024/03/29 06:37:36;;;;;;;1.75;0.68;;;22.40;42.50;;;;;;10316603;28;20043;-58
2024/03/29 06:42:39;;;;;;;1.65;0.70;;;22.30;42.90;;;;;;10316209;28;20533;-58
2024/03/29 06:47:40;;;;;;;1.58;0.70;;;22.20;42.80;;;;;;10310891;28;20047;-56
2024/03/29 06:52:42;;;;;;;0.85;0.60;;;22.10;42.90;;;;;;10306940;28;20053;-55
2024/03/29 06:57:45;;;;;;;1.33;0.70;;;22.00;43.30;;;;;;10326647;28;20038;-52
2024/03/29 07:02:47;;;;;;;2.55;0.77;;;22.00;43.50;;;;;;10340646;28;20054;-55
2024/03/29 07:07:48;;;;;;;2.75;0.80;;;21.90;43.20;;;;;;10320956;28;20054;-51
2024/03/29 07:12:51;;;;;;;10.15;1.00;;;22.20;43.90;;;;;;10334861;28;20050;-57
2024/03/29 07:17:53;;;;;;;7.22;0.75;;;22.60;44.40;;;;;;10354621;28;20045;-56
2024/03/29 07:22:55;;;;;;;2.60;0.73;;;22.80;45.40;;;;;;10352713;28;20046;-56
2024/03/29 07:27:58;;;;;;;2.70;0.60;;;22.90;46.30;;;;;;10352220;28;20072;-54
2024/03/29 07:32:59;;;;;;;1.05;0.60;;;23.10;46.90;;;;;;10350532;28;20047;-54
2024/03/29 07:38:01;;;;;;;2.00;0.57;;;23.10;46.40;;;;;;10351481;28;20041;-52
2024/03/29 07:43:04;;;;;;;0.80;0.50;;;23.30;46.50;;;;;;10356908;28;20072;-57
2024/03/29 07:48:11;;;;;;;1.13;0.52;;;23.10;47.00;;;;;;10342276;28;20050;-55
2024/03/29 07:53:12;;;;;;;2.08;0.50;;;22.80;46.90;;;;;;10311551;28;20050;-53
2024/03/29 07:58:16;;;;;;;5.43;0.80;;;22.80;47.30;;;;;;10310108;28;20096;-54
2024/03/29 08:03:18;;;;;;;0.75;0.50;;;22.80;47.30;;;;;;10313622;28;20097;-54
2024/03/29 08:08:24;;;;;;;1.58;0.50;;;22.80;47.50;;;;;;10319232;28;20046;-55
2024/03/29 08:13:28;;;;;;;3.08;0.60;;;22.80;47.40;;;;;;10322360;28;20464;-54
2024/03/29 08:18:29;;;;;;;4.95;0.70;;;22.80;47.60;;;;;;10325769;28;20393;-52
2024/03/29 08:23:31;;;;;;;2.15;0.60;;;22.70;47.80;;;;;;10325091;28;20050;-56
2024/03/29 08:28:35;;;;;;;0.73;0.52;;;22.80;47.80;;;;;;10322857;28;20471;-52
2024/03/29 08:33:38;;;;;;;1.38;0.40;;;22.80;47.80;;;;;;10318484;28;20054;-53
2024/03/29 08:38:43;;;;;;;1.60;0.55;;;22.80;47.90;;;;;;10321798;28;20516;-56
2024/03/29 08:43:46;;;;;;;2.33;0.70;;;22.60;48.60;;;;;;10320827;28;20420;-56
2024/03/29 08:48:47;;;;;;;2.70;0.80;;;22.70;48.60;;;;;;10323183;28;20065;-56
2024/03/29 08:53:49;;;;;;;2.47;0.90;;;22.50;47.50;;;;;;10323935;28;20057;-51
2024/03/29 08:58:52;;;;;;;2.60;1.25;;;22.80;47.90;;;;;;10324252;28;20050;-52
2024/03/29 09:03:54;;;;;;;4.53;1.50;;;22.80;48.40;;;;;;10322549;28;20058;-51
2024/03/29 09:08:55;;;;;;;4.15;1.45;;;22.80;49.10;;;;;;10319028;28;20497;-53
2024/03/29 09:13:59;;;;;;;3.03;1.50;;;22.80;49.80;;;;;;10322439;28;20050;-55
2024/03/29 09:19:00;;;;;;;4.60;1.40;;;22.80;50.10;;;;;;10328740;28;20053;-55
2024/03/29 09:24:02;;;;;;;4.47;1.85;;;22.80;51.10;;;;;;10324883;28;20136;-55
2024/03/29 09:29:05;;;;;;;5.20;1.38;;;22.80;51.40;;;;;;10326481;28;20459;-56
2024/03/29 09:34:06;;;;;;;5.38;1.67;;;22.80;51.50;;;;;;10321339;28;20608;-53
2024/03/29 09:39:09;;;;;;;9.77;1.35;;;22.80;51.60;;;;;;10318118;28;20053;-58
2024/03/29 09:44:12;;;;;;;6.00;1.33;;;22.80;51.80;;;;;;10320440;28;20050;-54
2024/03/29 09:49:14;;;;;;;9.43;1.42;;;22.80;51.90;;;;;;10315938;28;20060;-57
2024/03/29 09:54:16;;;;;;;5.30;1.00;;;22.90;51.20;;;;;;10319307;28;20050;-56
2024/03/29 09:59:19;;;;;;;4.00;1.17;;;22.80;51.30;;;;;;10315942;28;20089;-57
2024/03/29 10:04:22;;;;;;;2.70;1.20;;;22.80;51.00;;;;;;10319404;28;20061;-53
2024/03/29 10:09:27;;;;;;;3.88;1.05;;;22.80;50.90;;;;;;10319884;28;20065;-57
2024/03/29 10:14:32;;;;;;;3.85;1.10;;;22.80;50.70;;;;;;10323503;28;20076;-57
2024/03/29 10:19:33;;;;;;;2.80;1.08;;;22.80;50.60;;;;;;10320984;28;20050;-53
2024/03/29 10:24:35;;;;;;;3.25;1.00;;;22.80;50.40;;;;;;10319117;28;20047;-58
2024/03/29 10:29:38;;;;;;;2.10;1.10;;;22.70;50.00;;;;;;10314114;28;20049;-57
2024/03/29 10:34:39;;;;;;;1.90;1.00;;;22.70;48.80;;;;;;10317992;28;20064;-56
2024/03/29 10:39:43;;;;;;;2.40;1.00;;;22.90;47.00;;;;;;10315354;28;20057;-57
2024/03/29 10:44:46;;;;;;;5.38;1.02;;;23.00;46.50;;;;;;10317486;28;20050;-58
2024/03/29 10:49:48;;;;;;;9.00;1.40;;;22.70;47.30;;;;;;10319098;28;20101;-57
2024/03/29 10:54:50;;;;;;;20.17;2.35;;;22.70;47.90;;;;;;10310579;28;20042;-57
2024/03/29 10:59:59;;;;;;;10.00;1.92;;;22.80;48.60;;;;;;10311041;28;20060;-56
2024/03/29 11:05:05;;;;;;;14.57;2.15;;;22.90;49.30;;;;;;10313355;28;20043;-54
2024/03/29 11:10:07;;;;;;;24.48;2.33;;;22.90;50.00;;;;;;10308076;28;20050;-57
2024/03/29 11:15:13;;;;;;;14.52;1.75;;;23.00;49.80;;;;;;10320258;28;20050;-56
2024/03/29 11:20:18;;;;;;;13.07;1.85;;;23.10;49.90;;;;;;10308795;28;20057;-56
2024/03/29 11:25:19;;;;;;;23.33;1.80;;;23.10;50.10;;;;;;10315709;28;20047;-53
2024/03/29 11:30:22;;;;;;;9.27;1.55;;;23.20;50.00;;;;;;10314702;28;20700;-57
2024/03/29 11:35:29;;;;;;;5.97;1.35;;;23.20;50.20;;;;;;10315695;28;20496;-58
2024/03/29 11:40:31;;;;;;;6.07;1.30;;;23.30;50.00;;;;;;10321182;28;20137;-58
2024/03/29 11:45:34;;;;;;;4.57;1.10;;;23.40;49.90;;;;;;10320144;28;20130;-57
2024/03/29 11:50:36;;;;;;;5.97;1.33;;;23.40;49.80;;;;;;10313812;28;20057;-58
2024/03/29 11:55:37;;;;;;;7.05;1.65;;;23.70;49.00;;;;;;10320499;28;20444;-58
2024/03/29 12:00:44;;;;;;;7.03;1.35;;;23.60;49.40;;;;;;10318745;28;20402;-57
2024/03/29 12:05:45;;;;;;;5.25;1.50;;;23.60;49.70;;;;;;10359995;28;20065;-59
2024/03/29 12:10:47;;;;;;;5.40;1.50;;;23.60;49.40;;;;;;10365566;28;20460;-55
2024/03/29 12:15:50;;;;;;;5.38;1.63;;;23.70;49.40;;;;;;10369934;28;20052;-56
2024/03/29 12:20:52;;;;;;;3.70;1.48;;;23.60;49.50;;;;;;10367421;28;20058;-56
2024/03/29 12:25:57;;;;;;;4.38;1.17;;;23.60;49.90;;;;;;10367488;28;20130;-56
2024/03/29 12:31:00;;;;;;;4.22;1.42;;;23.60;50.20;;;;;;10368906;28;20048;-61
2024/03/29 12:36:02;;;;;;;7.43;1.42;;;23.80;50.30;;;;;;10356983;28;20050;-62
2024/03/29 12:41:04;;;;;;;5.32;1.30;;;23.80;50.70;;;;;;10323565;28;20053;-62
2024/03/29 12:46:07;;;;;;;5.47;1.40;;;23.80;50.90;;;;;;10314504;28;20056;-63
2024/03/29 12:51:08;;;;;;;8.23;1.65;;;23.80;51.40;;;;;;10357725;28;20072;-61
2024/03/29 12:56:10;;;;;;;6.00;1.08;;;24.00;51.50;;;;;;10321743;28;20056;-61
2024/03/29 13:01:13;;;;;;;4.70;1.38;;;24.10;50.80;;;;;;10359312;28;20056;-62
2024/03/29 13:06:14;;;;;;;1.45;0.80;;;24.00;50.10;;;;;;10360266;28;20052;-63
2024/03/29 13:11:16;;;;;;;2.33;1.00;;;23.90;49.80;;;;;;10342287;28;20133;-62
2024/03/29 13:16:19;;;;;;;1.17;0.80;;;24.00;48.50;;;;;;10321078;28;20069;-62
2024/03/29 13:21:21;;;;;;;1.98;0.90;;;24.00;47.70;;;;;;10320582;28;20047;-59
2024/03/29 13:26:22;;;;;;;3.20;1.00;;;24.10;47.10;;;;;;10318345;28;20417;-60
2024/03/29 13:31:28;;;;;;;1.95;0.80;;;24.10;47.40;;;;;;10314366;28;20043;-63
2024/03/29 13:36:29;;;;;;;1.05;0.70;;;24.10;47.50;;;;;;10319602;28;20054;-64
2024/03/29 13:41:31;;;;;;;5.60;0.95;;;24.20;47.40;;;;;;10325654;28;20050;-62
2024/03/29 13:46:34;;;;;;;1.63;0.70;;;24.30;46.10;;;;;;10318476;28;20073;-63
2024/03/29 13:51:36;;;;;;;1.42;0.80;;;24.30;45.90;;;;;;10315792;28;20045;-61
2024/03/29 13:56:37;;;;;;;2.28;0.60;;;24.30;45.80;;;;;;10316957;28;20046;-59
2024/03/29 14:01:40;;;;;;;4.18;0.73;;;24.30;45.80;;;;;;10321824;28;20055;-62
2024/03/29 14:06:42;;;;;;;1.83;0.80;;;24.50;45.10;;;;;;10331988;28;20060;-56
2024/03/29 14:11:44;;;;;;;1.60;0.85;;;24.50;44.90;;;;;;10360540;28;20057;-61
2024/03/29 14:16:47;;;;;;;5.10;1.08;;;24.50;44.80;;;;;;10353166;28;20504;-60
2024/03/29 14:21:49;;;;;;;2.10;1.02;;;24.60;44.40;;;;;;10362624;28;20041;-58
2024/03/29 14:26:50;;;;;;;3.47;0.90;;;24.60;44.80;;;;;;10346765;28;20049;-61
2024/03/29 14:31:54;;;;;;;5.47;0.98;;;24.70;44.00;;;;;;10357367;28;20510;-61
2024/03/29 14:36:56;;;;;;;3.50;1.10;;;24.70;44.20;;;;;;10356814;28;20049;-59
2024/03/29 14:41:59;;;;;;;3.22;0.90;;;24.70;43.80;;;;;;10353766;28;20050;-61
2024/03/29 14:47:02;;;;;;;2.33;1.05;;;24.70;43.10;;;;;;10356724;28;20080;-56
2024/03/29 14:52:04;;;;;;;1.23;0.80;;;25.00;41.90;;;;;;10360080;28;20065;-62
2024/03/29 14:57:05;;;;;;;1.95;0.80;;;25.00;42.00;;;;;;10348554;28;20104;-60
2024/03/29 15:02:08;;;;;;;3.13;1.02;;;24.90;41.70;;;;;;10355896;28;20050;-62
2024/03/29 15:07:11;;;;;;;3.83;1.00;;;25.00;42.20;;;;;;10355514;28;20049;-62
2024/03/29 15:12:12;;;;;;;0.90;0.80;;;24.90;41.70;;;;;;10361243;28;20073;-61
2024/03/29 15:17:16;;;;;;;4.63;0.90;;;25.00;41.00;;;;;;10353891;28;20050;-63
2024/03/29 15:22:18;;;;;;;2.33;0.70;;;24.60;41.00;;;;;;10356978;28;20050;-64
2024/03/29 15:29:03;;;;;;;1.33;0.82;;;24.50;40.60;;;;;;10359223;28;20125;-64
2024/03/29 15:32:50;;;;;;;2.35;0.70;;;24.20;41.00;;;;;;10351638;28;20062;-59
2024/03/29 15:37:51;;;;;;;1.67;0.57;;;24.20;40.80;;;;;;10355384;28;20042;-62
2024/03/29 15:42:53;;;;;;;2.17;0.70;;;24.10;41.40;;;;;;10358725;28;20053;-63
2024/03/29 15:47:57;;;;;;;5.60;0.82;;;24.20;41.70;;;;;;10355708;28;20074;-63
2024/03/29 15:52:58;;;;;;;2.47;0.70;;;24.30;41.80;;;;;;10362399;28;20092;-62
2024/03/29 15:58:00;;;;;;;3.35;0.90;;;24.30;41.80;;;;;;10354871;28;20042;-63
2024/03/29 16:03:03;;;;;;;1.25;0.85;;;24.10;42.40;;;;;;10360722;28;20048;-62
2024/03/29 16:08:05;;;;;;;7.35;0.80;;;24.10;41.50;;;;;;10362758;28;20547;-62
2024/03/29 16:13:07;;;;;;;1.45;0.75;;;24.10;41.90;;;;;;10358075;28;20046;-62
2024/03/29 16:18:10;;;;;;;2.17;0.75;;;24.20;42.10;;;;;;10342388;28;20052;-65
2024/03/29 16:23:12;;;;;;;2.28;0.70;;;24.30;42.30;;;;;;10345748;28;20048;-64
2024/03/29 16:28:14;;;;;;;6.80;0.77;;;24.30;42.80;;;;;;10363791;28;20052;-63
2024/03/29 16:33:17;;;;;;;1.70;0.70;;;24.20;43.80;;;;;;10363262;28;20108;-64
2024/03/29 16:38:19;;;;;;;3.28;0.85;;;24.50;43.40;;;;;;10314136;28;20544;-64
2024/03/29 16:43:20;;;;;;;3.65;0.80;;;24.40;44.30;;;;;;10325150;28;20042;-61
2024/03/29 16:48:23;;;;;;;4.13;1.02;;;24.20;44.60;;;;;;10322447;28;20050;-64
2024/03/29 16:53:25;;;;;;;5.63;0.90;;;24.20;45.40;;;;;;10325007;28;20054;-64
2024/03/29 16:58:28;;;;;;;2.78;0.90;;;24.00;45.70;;;;;;10323563;28;20419;-64
2024/03/29 17:03:31;;;;;;;2.95;0.90;;;24.00;46.10;;;;;;10325230;28;20050;-61
2024/03/29 17:08:32;;;;;;;2.25;0.77;;;23.90;46.20;;;;;;10326600;28;20056;-63
2024/03/29 17:13:34;;;;;;;4.22;1.00;;;24.00;45.80;;;;;;10322685;28;20059;-63
2024/03/29 17:18:37;;;;;;;1.58;0.70;;;23.90;46.00;;;;;;10318790;28;20085;-64
2024/03/29 17:23:38;;;;;;;2.08;0.80;;;23.90;46.00;;;;;;10319795;28;20497;-61
2024/03/29 17:28:40;;;;;;;3.72;0.68;;;23.90;46.10;;;;;;10321614;28;20417;-64
2024/03/29 17:33:43;;;;;;;5.22;0.80;;;24.00;46.50;;;;;;10321113;28;20054;-67
2024/03/29 17:38:44;;;;;;;3.58;0.70;;;23.80;46.60;;;;;;10321820;28;20080;-64
2024/03/29 17:43:46;;;;;;;4.38;0.90;;;23.60;47.50;;;;;;10321880;28;20054;-67
2024/03/29 17:48:49;;;;;;;3.78;0.80;;;24.00;47.00;;;;;;10320180;28;20407;-63
2024/03/29 17:53:51;;;;;;;1.67;0.88;;;24.20;46.50;;;;;;10318962;28;20077;-63
2024/03/29 17:58:53;;;;;;;6.03;0.80;;;24.40;46.40;;;;;;10321602;28;20500;-68
2024/03/29 18:03:55;;;;;;;3.28;0.70;;;24.30;47.10;;;;;;10320291;28;20526;-64
2024/03/29 18:08:57;;;;;;;3.15;0.90;;;24.30;46.80;;;;;;10321837;28;20069;-67
2024/03/29 18:13:59;;;;;;;3.10;0.80;;;24.30;46.70;;;;;;10325671;28;20046;-63
2024/03/29 18:19:02;;;;;;;1.70;0.60;;;24.30;47.20;;;;;;10317724;28;20133;-64
2024/03/29 18:24:04;;;;;;;3.85;0.73;;;24.30;47.10;;;;;;10351864;28;20049;-63
2024/03/29 18:29:06;;;;;;;3.38;0.85;;;24.20;47.40;;;;;;10338775;28;20460;-65
2024/03/29 18:34:11;;;;;;;2.00;0.65;;;24.30;47.10;;;;;;10324153;28;20078;-64
2024/03/29 18:39:13;;;;;;;3.17;0.60;;;24.40;47.00;;;;;;10321281;28;20039;-65
2024/03/29 18:44:15;;;;;;;2.50;0.52;;;24.30;47.30;;;;;;10318272;28;20047;-64
2024/03/29 18:49:18;;;;;;;3.50;0.70;;;24.40;47.00;;;;;;10343311;28;20124;-64
2024/03/29 18:54:20;;;;;;;4.15;1.13;;;24.30;47.10;;;;;;10357457;28;20053;-64
2024/03/29 18:59:22;;;;;;;1.80;0.70;;;24.30;47.40;;;;;;10350772;28;20393;-65
2024/03/29 19:04:25;;;;;;;4.45;0.70;;;24.30;47.40;;;;;;10354064;28;20044;-64
2024/03/29 19:09:26;;;;;;;2.67;0.60;;;24.30;47.70;;;;;;10354543;28;20042;-63
2024/03/29 19:14:28;;;;;;;2.65;0.90;;;24.30;47.50;;;;;;10358421;28;20572;-64
2024/03/29 19:19:31;;;;;;;5.63;0.90;;;24.30;47.50;;;;;;10358786;28;20046;-62
2024/03/29 19:24:33;;;;;;;4.60;0.80;;;24.30;47.90;;;;;;10356194;28;20048;-64
2024/03/29 19:29:35;;;;;;;3.78;0.73;;;24.20;48.00;;;;;;10357359;28;20042;-64
2024/03/29 19:34:37;;;;;;;5.40;1.02;;;24.20;48.40;;;;;;10361195;28;20048;-62
2024/03/29 19:39:39;;;;;;;1.63;0.70;;;24.20;48.30;;;;;;10361851;28;20060;-62
2024/03/29 19:44:41;;;;;;;2.20;0.70;;;24.20;48.30;;;;;;10359547;28;20054;-62
2024/03/29 19:49:44;;;;;;;5.97;0.77;;;24.40;48.50;;;;;;10324280;28;20088;-62
2024/03/29 19:54:45;;;;;;;3.58;0.90;;;24.50;48.00;;;;;;10310557;28;20056;-61
2024/03/29 19:59:47;;;;;;;3.95;0.93;;;24.60;47.80;;;;;;10316379;28;20054;-62
2024/03/29 20:04:50;;;;;;;4.65;0.85;;;24.60;47.70;;;;;;10311644;28;20054;-62
2024/03/29 20:09:51;;;;;;;1.98;0.98;;;24.70;47.70;;;;;;10317810;28;20450;-62
2024/03/29 20:14:53;;;;;;;1.23;0.90;;;24.30;48.60;;;;;;10318720;28;20057;-62
2024/03/29 20:19:56;;;;;;;1.63;0.98;;;24.00;49.00;;;;;;10318101;28;20067;-62
2024/03/29 20:24:58;;;;;;;2.10;0.90;;;23.90;49.20;;;;;;10318415;28;20050;-65
2024/03/29 20:29:59;;;;;;;3.17;0.93;;;23.70;49.40;;;;;;10316325;28;20211;-64
2024/03/29 20:35:02;;;;;;;1.38;0.88;;;23.70;49.20;;;;;;10314629;28;20666;-63
2024/03/29 20:40:05;;;;;;;2.08;0.90;;;23.80;49.10;;;;;;10320834;28;20046;-63
2024/03/29 20:45:07;;;;;;;1.45;0.82;;;23.70;49.60;;;;;;10317576;28;20043;-64
2024/03/29 20:50:11;;;;;;;5.00;0.80;;;23.60;49.60;;;;;;10319962;28;20048;-63
2024/03/29 20:55:13;;;;;;;4.10;0.80;;;23.70;49.20;;;;;;10324333;28;20050;-63
2024/03/29 21:00:15;;;;;;;1.38;0.80;;;23.40;49.70;;;;;;10321424;28;20404;-63
2024/03/29 21:05:34;;;;;;;4.63;0.75;;;23.40;49.70;;;;;;10325033;28;20082;-63
2024/03/29 21:10:36;;;;;;;0.65;0.60;;;23.10;50.10;;;;;;10323468;28;20539;-63
2024/03/29 21:15:38;;;;;;;1.63;0.88;;;23.00;50.40;;;;;;10320124;28;20600;-64
2024/03/29 21:20:41;;;;;;;3.08;0.88;;;22.90;50.70;;;;;;10322138;28;20046;-63
2024/03/29 21:25:42;;;;;;;1.52;0.80;;;22.90;50.40;;;;;;10318120;28;20085;-64
2024/03/29 21:30:45;;;;;;;0.90;0.70;;;23.10;50.00;;;;;;10322769;28;20069;-64
2024/03/29 21:35:48;;;;;;;0.82;0.77;;;23.40;49.00;;;;;;10324609;28;20125;-63
2024/03/29 21:40:50;;;;;;;0.70;0.65;;;23.40;49.00;;;;;;10315536;28;20412;-60
2024/03/29 21:45:51;;;;;;;2.88;0.80;;;23.40;48.90;;;;;;10314804;28;20046;-61
2024/03/29 21:50:54;;;;;;;0.85;0.60;;;23.50;48.50;;;;;;10312787;28;20069;-61
2024/03/29 21:55:56;;;;;;;1.65;0.70;;;23.50;48.30;;;;;;10312708;28;20046;-61
2024/03/29 22:00:57;;;;;;;1.67;0.70;;;23.20;49.00;;;;;;10320375;28;20044;-61
2024/03/29 22:06:00;;;;;;;1.45;0.75;;;23.20;49.10;;;;;;10319608;28;20057;-60
2024/03/29 22:11:02;;;;;;;0.90;0.80;;;23.20;48.90;;;;;;10317593;28;20042;-61
2024/03/29 22:16:04;;;;;;;0.85;0.70;;;23.10;49.10;;;;;;10315016;28;20070;-61
2024/03/29 22:21:07;;;;;;;2.20;0.90;;;23.10;49.00;;;;;;10309672;28;20129;-62
2024/03/29 22:26:09;;;;;;;2.20;0.70;;;22.90;49.30;;;;;;10358186;28;20046;-60
2024/03/29 22:31:10;;;;;;;1.23;0.70;;;22.80;49.40;;;;;;10353984;28;20078;-63
2024/03/29 22:36:13;;;;;;;1.05;0.77;;;22.80;49.60;;;;;;10314858;28;20073;-64
2024/03/29 22:41:15;;;;;;;0.80;0.80;;;22.70;49.50;;;;;;10314883;28;20042;-63
2024/03/29 22:46:17;;;;;;;1.60;0.80;;;22.70;49.30;;;;;;10314379;28;20049;-62
2024/03/29 22:51:19;;;;;;;0.90;0.80;;;22.70;49.50;;;;;;10308094;28;20071;-61
2024/03/29 22:56:21;;;;;;;0.70;0.63;;;22.70;49.50;;;;;;10310764;28;20046;-61
2024/03/29 23:01:23;;;;;;;0.70;0.60;;;22.70;49.40;;;;;;10308413;28;20038;-62
2024/03/29 23:06:26;;;;;;;2.03;0.73;;;22.70;49.30;;;;;;10309247;28;20093;-62
2024/03/29 23:11:27;;;;;;;1.92;0.70;;;22.70;49.40;;;;;;10315204;28;20053;-61
2024/03/29 23:16:29;;;;;;;1.77;0.77;;;22.70;49.20;;;;;;10313407;28;20042;-60
2024/03/29 23:21:32;;;;;;;0.95;0.80;;;22.60;49.40;;;;;;10318517;28;20451;-61
2024/03/29 23:26:34;;;;;;;0.70;0.70;;;22.60;49.40;;;;;;10314558;28;20050;-63
2024/03/29 23:31:35;;;;;;;1.75;0.60;;;22.50;49.40;;;;;;10316040;28;20076;-63
2024/03/29 23:36:46;;;;;;;0.60;0.60;;;22.60;49.30;;;;;;10324787;28;20126;-62
2024/03/29 23:41:47;;;;;;;0.60;0.60;;;22.50;49.30;;;;;;10326305;28;20453;-63
2024/03/29 23:46:49;;;;;;;1.02;0.70;;;22.40;49.30;;;;;;10328424;28;20050;-62
2024/03/29 23:51:52;;;;;;;1.20;0.75;;;22.40;49.50;;;;;;10324340;28;20047;-62
2024/03/29 23:56:53;;;;;;;1.10;0.75;;;22.40;49.50;;;;;;10319189;28;20060;-64
